sensor_id;sensor_type;location;lat;lon;timestamp;temperature;humidity
1367;DHT22;16877;48.810;9.282;2022-08-20T00:00:37;29.30;54.00
1367;DHT22;16877;48.810;9.282;2022-08-20T00:03:06;29.30;54.00
1367;DHT22;16877;48.810;9.282;2022-08-20T00:05:38;29.30;54.00
1367;DHT22;16877;48.810;9.282;2022-08-20T00:08:07;29.20;54.10
1367;DHT22;16877;48.810;9.282;2022-08-20T00:10:36;29.20;54.20
1367;DHT22;16877;48.810;9.282;2022-08-20T00:13:04;29.20;54.20
1367;DHT22;16877;48.810;9.282;2022-08-20T00:15:33;29.20;54.20
1367;DHT22;16877;48.810;9.282;2022-08-20T00:18:01;29.10;54.30
1367;DHT22;16877;48.810;9.282;2022-08-20T00:20:32;29.10;54.30
1367;DHT22;16877;48.810;9.282;2022-08-20T00:23:00;29.20;54.40
1367;DHT22;16877;48.810;9.282;2022-08-20T00:25:28;29.10;54.40
1367;DHT22;16877;48.810;9.282;2022-08-20T00:27:55;29.10;54.50
1367;DHT22;16877;48.810;9.282;2022-08-20T00:30:22;29.10;54.60
1367;DHT22;16877;48.810;9.282;2022-08-20T00:32:51;29.10;54.60
1367;DHT22;16877;48.810;9.282;2022-08-20T00:35:21;29.10;54.60
1367;DHT22;16877;48.810;9.282;2022-08-20T00:37:50;29.00;54.60
1367;DHT22;16877;48.810;9.282;2022-08-20T00:40:22;29.00;54.60
1367;DHT22;16877;48.810;9.282;2022-08-20T00:42:51;29.00;54.70
1367;DHT22;16877;48.810;9.282;2022-08-20T00:45:19;29.00;54.80
1367;DHT22;16877;48.810;9.282;2022-08-20T00:47:46;29.00;54.80
1367;DHT22;16877;48.810;9.282;2022-08-20T00:50:16;29.00;54.90
1367;DHT22;16877;48.810;9.282;2022-08-20T00:52:48;29.00;54.90
1367;DHT22;16877;48.810;9.282;2022-08-20T00:55:19;28.90;54.90
1367;DHT22;16877;48.810;9.282;2022-08-20T00:57:50;28.90;54.90
1367;DHT22;16877;48.810;9.282;2022-08-20T01:00:21;28.90;55.00
1367;DHT22;16877;48.810;9.282;2022-08-20T01:02:49;28.90;55.00
1367;DHT22;16877;48.810;9.282;2022-08-20T01:05:16;28.90;55.10
1367;DHT22;16877;48.810;9.282;2022-08-20T01:07:43;28.90;55.10
1367;DHT22;16877;48.810;9.282;2022-08-20T01:10:13;28.90;55.10
1367;DHT22;16877;48.810;9.282;2022-08-20T01:12:44;28.90;55.10
1367;DHT22;16877;48.810;9.282;2022-08-20T01:15:14;28.90;55.20
1367;DHT22;16877;48.810;9.282;2022-08-20T01:17:47;28.90;55.20
1367;DHT22;16877;48.810;9.282;2022-08-20T01:20:18;28.90;55.10
1367;DHT22;16877;48.810;9.282;2022-08-20T01:22:49;28.90;55.10
1367;DHT22;16877;48.810;9.282;2022-08-20T01:25:48;28.90;55.20
1367;DHT22;16877;48.810;9.282;2022-08-20T01:28:20;28.90;55.30
1367;DHT22;16877;48.810;9.282;2022-08-20T01:30:48;28.90;55.30
1367;DHT22;16877;48.810;9.282;2022-08-20T01:33:16;28.80;55.30
1367;DHT22;16877;48.810;9.282;2022-08-20T01:35:43;28.80;55.20
1367;DHT22;16877;48.810;9.282;2022-08-20T01:38:11;28.90;55.30
1367;DHT22;16877;48.810;9.282;2022-08-20T01:40:54;28.90;55.30
1367;DHT22;16877;48.810;9.282;2022-08-20T01:43:24;28.90;55.40
1367;DHT22;16877;48.810;9.282;2022-08-20T01:45:51;28.80;55.30
1367;DHT22;16877;48.810;9.282;2022-08-20T01:48:19;28.90;55.40
1367;DHT22;16877;48.810;9.282;2022-08-20T01:50:52;28.90;55.40
1367;DHT22;16877;48.810;9.282;2022-08-20T01:53:25;28.90;55.30
1367;DHT22;16877;48.810;9.282;2022-08-20T01:55:55;28.90;55.30
1367;DHT22;16877;48.810;9.282;2022-08-20T01:58:22;28.90;55.40
1367;DHT22;16877;48.810;9.282;2022-08-20T02:00:48;28.90;55.40
1367;DHT22;16877;48.810;9.282;2022-08-20T02:03:15;28.90;55.40
1367;DHT22;16877;48.810;9.282;2022-08-20T02:05:42;28.90;55.50
1367;DHT22;16877;48.810;9.282;2022-08-20T02:08:09;28.90;55.50
1367;DHT22;16877;48.810;9.282;2022-08-20T02:10:35;28.90;55.50
1367;DHT22;16877;48.810;9.282;2022-08-20T02:13:04;28.90;55.50
1367;DHT22;16877;48.810;9.282;2022-08-20T02:15:33;28.90;55.50
1367;DHT22;16877;48.810;9.282;2022-08-20T02:18:02;28.90;55.50
1367;DHT22;16877;48.810;9.282;2022-08-20T02:20:30;28.90;55.60
1367;DHT22;16877;48.810;9.282;2022-08-20T02:22:57;28.80;55.50
1367;DHT22;16877;48.810;9.282;2022-08-20T02:25:27;28.90;55.60
1367;DHT22;16877;48.810;9.282;2022-08-20T02:27:56;28.90;55.50
1367;DHT22;16877;48.810;9.282;2022-08-20T02:30:29;28.90;55.50
1367;DHT22;16877;48.810;9.282;2022-08-20T02:32:58;28.90;55.50
1367;DHT22;16877;48.810;9.282;2022-08-20T02:35:25;28.90;56.10
1367;DHT22;16877;48.810;9.282;2022-08-20T02:37:53;28.90;55.50
1367;DHT22;16877;48.810;9.282;2022-08-20T02:40:21;28.90;55.50
1367;DHT22;16877;48.810;9.282;2022-08-20T02:42:50;28.90;55.50
1367;DHT22;16877;48.810;9.282;2022-08-20T02:45:17;28.90;55.50
1367;DHT22;16877;48.810;9.282;2022-08-20T02:47:46;28.90;55.50
1367;DHT22;16877;48.810;9.282;2022-08-20T02:50:15;28.90;55.60
1367;DHT22;16877;48.810;9.282;2022-08-20T02:52:43;28.90;55.60
1367;DHT22;16877;48.810;9.282;2022-08-20T02:55:10;28.80;55.50
1367;DHT22;16877;48.810;9.282;2022-08-20T02:57:38;28.80;55.60
1367;DHT22;16877;48.810;9.282;2022-08-20T03:00:07;28.80;55.60
1367;DHT22;16877;48.810;9.282;2022-08-20T03:02:35;28.80;55.60
1367;DHT22;16877;48.810;9.282;2022-08-20T03:05:04;28.80;55.70
1367;DHT22;16877;48.810;9.282;2022-08-20T03:07:31;28.80;55.70
1367;DHT22;16877;48.810;9.282;2022-08-20T03:09:57;28.80;55.70
1367;DHT22;16877;48.810;9.282;2022-08-20T03:12:24;28.80;55.80
1367;DHT22;16877;48.810;9.282;2022-08-20T03:14:51;28.80;55.70
1367;DHT22;16877;48.810;9.282;2022-08-20T03:17:18;28.80;55.80
1367;DHT22;16877;48.810;9.282;2022-08-20T03:19:45;28.70;55.70
1367;DHT22;16877;48.810;9.282;2022-08-20T03:22:13;28.70;55.80
1367;DHT22;16877;48.810;9.282;2022-08-20T03:24:39;28.80;55.80
1367;DHT22;16877;48.810;9.282;2022-08-20T03:27:06;28.70;55.80
1367;DHT22;16877;48.810;9.282;2022-08-20T03:29:33;28.70;55.90
1367;DHT22;16877;48.810;9.282;2022-08-20T03:32:00;28.70;55.90
1367;DHT22;16877;48.810;9.282;2022-08-20T03:34:26;28.70;55.90
1367;DHT22;16877;48.810;9.282;2022-08-20T03:36:53;28.70;55.90
1367;DHT22;16877;48.810;9.282;2022-08-20T03:39:21;28.70;55.90
1367;DHT22;16877;48.810;9.282;2022-08-20T03:41:48;28.70;55.90
1367;DHT22;16877;48.810;9.282;2022-08-20T03:44:14;28.70;55.90
1367;DHT22;16877;48.810;9.282;2022-08-20T03:46:41;28.70;56.00
1367;DHT22;16877;48.810;9.282;2022-08-20T03:49:08;28.70;56.00
1367;DHT22;16877;48.810;9.282;2022-08-20T03:51:35;28.70;56.10
1367;DHT22;16877;48.810;9.282;2022-08-20T03:54:01;28.70;56.10
1367;DHT22;16877;48.810;9.282;2022-08-20T03:56:30;28.70;56.20
1367;DHT22;16877;48.810;9.282;2022-08-20T03:58:56;28.70;56.20
1367;DHT22;16877;48.810;9.282;2022-08-20T04:01:23;28.70;56.30
1367;DHT22;16877;48.810;9.282;2022-08-20T04:03:50;28.70;56.40
1367;DHT22;16877;48.810;9.282;2022-08-20T04:06:16;28.70;56.40
1367;DHT22;16877;48.810;9.282;2022-08-20T04:08:43;28.70;56.40
1367;DHT22;16877;48.810;9.282;2022-08-20T04:11:10;28.70;56.40
1367;DHT22;16877;48.810;9.282;2022-08-20T04:13:39;28.70;56.40
1367;DHT22;16877;48.810;9.282;2022-08-20T04:16:06;28.70;56.40
1367;DHT22;16877;48.810;9.282;2022-08-20T04:18:34;28.70;56.40
1367;DHT22;16877;48.810;9.282;2022-08-20T04:21:03;28.70;56.50
1367;DHT22;16877;48.810;9.282;2022-08-20T04:23:30;28.70;56.50
1367;DHT22;16877;48.810;9.282;2022-08-20T04:25:57;28.70;57.20
1367;DHT22;16877;48.810;9.282;2022-08-20T04:28:24;28.70;56.70
1367;DHT22;16877;48.810;9.282;2022-08-20T04:30:56;28.70;56.60
1367;DHT22;16877;48.810;9.282;2022-08-20T04:33:24;28.70;56.60
1367;DHT22;16877;48.810;9.282;2022-08-20T04:35:52;28.70;56.70
1367;DHT22;16877;48.810;9.282;2022-08-20T04:38:20;28.70;56.70
1367;DHT22;16877;48.810;9.282;2022-08-20T04:40:48;28.70;56.70
1367;DHT22;16877;48.810;9.282;2022-08-20T04:43:24;28.70;56.70
1367;DHT22;16877;48.810;9.282;2022-08-20T04:45:51;28.70;56.80
1367;DHT22;16877;48.810;9.282;2022-08-20T04:48:20;28.70;56.80
1367;DHT22;16877;48.810;9.282;2022-08-20T04:50:49;28.80;56.90
1367;DHT22;16877;48.810;9.282;2022-08-20T04:53:18;28.80;56.80
1367;DHT22;16877;48.810;9.282;2022-08-20T04:55:45;28.80;56.80
1367;DHT22;16877;48.810;9.282;2022-08-20T04:58:15;28.80;56.80
1367;DHT22;16877;48.810;9.282;2022-08-20T05:00:44;28.70;56.70
1367;DHT22;16877;48.810;9.282;2022-08-20T05:03:11;28.80;56.90
1367;DHT22;16877;48.810;9.282;2022-08-20T05:05:39;28.80;56.90
1367;DHT22;16877;48.810;9.282;2022-08-20T05:08:06;28.70;56.80
1367;DHT22;16877;48.810;9.282;2022-08-20T05:10:33;28.70;56.90
1367;DHT22;16877;48.810;9.282;2022-08-20T05:13:03;28.70;56.90
1367;DHT22;16877;48.810;9.282;2022-08-20T05:15:30;28.80;56.90
1367;DHT22;16877;48.810;9.282;2022-08-20T05:17:59;28.70;56.90
1367;DHT22;16877;48.810;9.282;2022-08-20T05:20:26;28.80;57.00
1367;DHT22;16877;48.810;9.282;2022-08-20T05:22:57;28.80;56.90
1367;DHT22;16877;48.810;9.282;2022-08-20T05:25:23;28.70;56.90
1367;DHT22;16877;48.810;9.282;2022-08-20T05:27:55;28.70;57.00
1367;DHT22;16877;48.810;9.282;2022-08-20T05:30:22;28.70;57.00
1367;DHT22;16877;48.810;9.282;2022-08-20T05:32:48;28.80;57.10
1367;DHT22;16877;48.810;9.282;2022-08-20T05:35:15;28.80;57.20
1367;DHT22;16877;48.810;9.282;2022-08-20T05:37:42;28.80;57.30
1367;DHT22;16877;48.810;9.282;2022-08-20T05:40:13;28.80;57.40
1367;DHT22;16877;48.810;9.282;2022-08-20T05:42:40;28.80;58.10
1367;DHT22;16877;48.810;9.282;2022-08-20T05:45:08;28.80;57.60
1367;DHT22;16877;48.810;9.282;2022-08-20T05:47:38;28.80;57.60
1367;DHT22;16877;48.810;9.282;2022-08-20T05:50:06;28.80;57.60
1367;DHT22;16877;48.810;9.282;2022-08-20T05:52:33;28.80;57.70
1367;DHT22;16877;48.810;9.282;2022-08-20T05:55:00;28.80;57.80
1367;DHT22;16877;48.810;9.282;2022-08-20T05:57:28;28.80;57.70
1367;DHT22;16877;48.810;9.282;2022-08-20T05:59:55;28.80;57.80
1367;DHT22;16877;48.810;9.282;2022-08-20T06:02:21;28.80;57.80
1367;DHT22;16877;48.810;9.282;2022-08-20T06:05:06;28.90;57.90
1367;DHT22;16877;48.810;9.282;2022-08-20T06:07:33;28.80;57.90
1367;DHT22;16877;48.810;9.282;2022-08-20T06:10:00;28.90;57.90
1367;DHT22;16877;48.810;9.282;2022-08-20T06:12:28;28.90;57.90
1367;DHT22;16877;48.810;9.282;2022-08-20T06:14:55;28.90;57.90
1367;DHT22;16877;48.810;9.282;2022-08-20T06:17:21;28.90;57.90
1367;DHT22;16877;48.810;9.282;2022-08-20T06:19:48;29.00;57.90
1367;DHT22;16877;48.810;9.282;2022-08-20T06:22:15;29.00;57.90
1367;DHT22;16877;48.810;9.282;2022-08-20T06:24:42;29.10;57.90
1367;DHT22;16877;48.810;9.282;2022-08-20T06:27:12;29.10;57.90
1367;DHT22;16877;48.810;9.282;2022-08-20T06:29:41;29.10;57.80
1367;DHT22;16877;48.810;9.282;2022-08-20T06:32:07;29.20;57.80
1367;DHT22;16877;48.810;9.282;2022-08-20T06:34:34;29.20;57.80
1367;DHT22;16877;48.810;9.282;2022-08-20T06:37:01;29.30;56.90
1367;DHT22;16877;48.810;9.282;2022-08-20T06:39:28;29.40;56.60
1367;DHT22;16877;48.810;9.282;2022-08-20T06:41:55;29.50;56.50
1367;DHT22;16877;48.810;9.282;2022-08-20T06:44:23;29.60;56.50
1367;DHT22;16877;48.810;9.282;2022-08-20T06:46:51;29.60;56.50
1367;DHT22;16877;48.810;9.282;2022-08-20T06:49:21;29.70;56.70
1367;DHT22;16877;48.810;9.282;2022-08-20T06:51:47;29.80;56.50
1367;DHT22;16877;48.810;9.282;2022-08-20T06:54:14;29.90;56.50
1367;DHT22;16877;48.810;9.282;2022-08-20T06:56:41;29.90;56.30
1367;DHT22;16877;48.810;9.282;2022-08-20T06:59:08;29.90;56.20
1367;DHT22;16877;48.810;9.282;2022-08-20T07:01:35;29.90;56.10
1367;DHT22;16877;48.810;9.282;2022-08-20T07:04:03;29.90;56.50
1367;DHT22;16877;48.810;9.282;2022-08-20T07:06:33;29.90;56.40
1367;DHT22;16877;48.810;9.282;2022-08-20T07:08:59;29.90;56.60
1367;DHT22;16877;48.810;9.282;2022-08-20T07:11:26;29.90;56.70
1367;DHT22;16877;48.810;9.282;2022-08-20T07:13:53;29.90;56.50
1367;DHT22;16877;48.810;9.282;2022-08-20T07:16:21;29.90;56.60
1367;DHT22;16877;48.810;9.282;2022-08-20T07:18:47;29.90;56.50
1367;DHT22;16877;48.810;9.282;2022-08-20T07:21:15;30.00;56.60
1367;DHT22;16877;48.810;9.282;2022-08-20T07:23:42;30.00;57.00
1367;DHT22;16877;48.810;9.282;2022-08-20T07:26:09;30.00;57.10
1367;DHT22;16877;48.810;9.282;2022-08-20T07:28:37;30.00;57.10
1367;DHT22;16877;48.810;9.282;2022-08-20T07:31:03;30.00;57.20
1367;DHT22;16877;48.810;9.282;2022-08-20T07:33:48;30.00;57.20
1367;DHT22;16877;48.810;9.282;2022-08-20T07:36:16;30.00;57.40
1367;DHT22;16877;48.810;9.282;2022-08-20T07:38:44;29.90;57.30
1367;DHT22;16877;48.810;9.282;2022-08-20T07:41:12;30.00;57.40
1367;DHT22;16877;48.810;9.282;2022-08-20T07:43:40;30.00;57.50
1367;DHT22;16877;48.810;9.282;2022-08-20T07:46:07;30.00;57.60
1367;DHT22;16877;48.810;9.282;2022-08-20T07:48:36;30.00;57.50
1367;DHT22;16877;48.810;9.282;2022-08-20T07:51:05;30.00;57.60
1367;DHT22;16877;48.810;9.282;2022-08-20T07:53:35;30.10;57.90
1367;DHT22;16877;48.810;9.282;2022-08-20T07:56:07;30.10;57.70
1367;DHT22;16877;48.810;9.282;2022-08-20T07:58:36;30.20;57.30
1367;DHT22;16877;48.810;9.282;2022-08-20T08:01:05;30.20;57.60
1367;DHT22;16877;48.810;9.282;2022-08-20T08:03:32;30.30;57.60
1367;DHT22;16877;48.810;9.282;2022-08-20T08:05:59;30.30;57.70
1367;DHT22;16877;48.810;9.282;2022-08-20T08:08:27;30.40;57.50
1367;DHT22;16877;48.810;9.282;2022-08-20T08:10:58;30.50;57.60
1367;DHT22;16877;48.810;9.282;2022-08-20T08:13:27;30.50;57.20
1367;DHT22;16877;48.810;9.282;2022-08-20T08:15:59;30.60;57.30
1367;DHT22;16877;48.810;9.282;2022-08-20T08:18:32;30.60;57.20
1367;DHT22;16877;48.810;9.282;2022-08-20T08:20:59;30.70;57.20
1367;DHT22;16877;48.810;9.282;2022-08-20T08:23:26;30.80;57.10
1367;DHT22;16877;48.810;9.282;2022-08-20T08:25:55;30.90;57.00
1367;DHT22;16877;48.810;9.282;2022-08-20T08:28:21;30.90;56.80
1367;DHT22;16877;48.810;9.282;2022-08-20T08:30:48;31.10;57.00
1367;DHT22;16877;48.810;9.282;2022-08-20T08:33:19;31.10;56.60
1367;DHT22;16877;48.810;9.282;2022-08-20T08:35:53;31.10;56.80
1367;DHT22;16877;48.810;9.282;2022-08-20T08:38:20;31.20;56.40
1367;DHT22;16877;48.810;9.282;2022-08-20T08:40:47;31.30;56.30
1367;DHT22;16877;48.810;9.282;2022-08-20T08:43:17;31.40;56.40
1367;DHT22;16877;48.810;9.282;2022-08-20T08:45:50;31.40;56.20
1367;DHT22;16877;48.810;9.282;2022-08-20T08:48:19;31.20;56.80
1367;DHT22;16877;48.810;9.282;2022-08-20T08:50:50;31.20;56.50
1367;DHT22;16877;48.810;9.282;2022-08-20T08:53:21;31.10;56.80
1367;DHT22;16877;48.810;9.282;2022-08-20T08:55:50;31.00;56.60
1367;DHT22;16877;48.810;9.282;2022-08-20T08:58:18;31.00;56.40
1367;DHT22;16877;48.810;9.282;2022-08-20T09:00:44;31.00;56.80
1367;DHT22;16877;48.810;9.282;2022-08-20T09:03:17;31.00;56.80
1367;DHT22;16877;48.810;9.282;2022-08-20T09:05:48;30.90;56.80
1367;DHT22;16877;48.810;9.282;2022-08-20T09:08:20;30.90;57.00
1367;DHT22;16877;48.810;9.282;2022-08-20T09:10:48;31.00;56.80
1367;DHT22;16877;48.810;9.282;2022-08-20T09:13:15;31.00;56.80
1367;DHT22;16877;48.810;9.282;2022-08-20T09:15:43;30.90;56.80
1367;DHT22;16877;48.810;9.282;2022-08-20T09:18:10;30.90;56.70
1367;DHT22;16877;48.810;9.282;2022-08-20T09:20:37;31.00;56.60
1367;DHT22;16877;48.810;9.282;2022-08-20T09:23:04;31.00;56.50
1367;DHT22;16877;48.810;9.282;2022-08-20T09:25:32;31.20;56.50
1367;DHT22;16877;48.810;9.282;2022-08-20T09:27:58;31.30;56.30
1367;DHT22;16877;48.810;9.282;2022-08-20T09:30:25;31.30;56.10
1367;DHT22;16877;48.810;9.282;2022-08-20T09:32:53;31.30;56.00
1367;DHT22;16877;48.810;9.282;2022-08-20T09:35:20;31.50;56.00
1367;DHT22;16877;48.810;9.282;2022-08-20T09:37:46;31.70;55.60
1367;DHT22;16877;48.810;9.282;2022-08-20T09:40:13;31.70;55.40
1367;DHT22;16877;48.810;9.282;2022-08-20T09:42:40;31.60;55.20
1367;DHT22;16877;48.810;9.282;2022-08-20T09:45:08;31.50;55.00
1367;DHT22;16877;48.810;9.282;2022-08-20T09:47:34;31.30;55.00
1367;DHT22;16877;48.810;9.282;2022-08-20T09:50:04;31.00;55.00
1367;DHT22;16877;48.810;9.282;2022-08-20T09:52:33;31.00;54.80
1367;DHT22;16877;48.810;9.282;2022-08-20T09:55:02;30.80;55.20
1367;DHT22;16877;48.810;9.282;2022-08-20T09:57:30;30.70;55.40
1367;DHT22;16877;48.810;9.282;2022-08-20T10:00:00;30.70;55.60
1367;DHT22;16877;48.810;9.282;2022-08-20T10:02:27;30.70;55.70
1367;DHT22;16877;48.810;9.282;2022-08-20T10:04:54;30.70;55.80
1367;DHT22;16877;48.810;9.282;2022-08-20T10:07:22;30.70;55.80
1367;DHT22;16877;48.810;9.282;2022-08-20T10:09:49;30.70;55.60
1367;DHT22;16877;48.810;9.282;2022-08-20T10:12:16;30.80;55.40
1367;DHT22;16877;48.810;9.282;2022-08-20T10:14:42;30.90;55.50
1367;DHT22;16877;48.810;9.282;2022-08-20T10:17:09;30.90;55.10
1367;DHT22;16877;48.810;9.282;2022-08-20T10:19:36;30.80;55.20
1367;DHT22;16877;48.810;9.282;2022-08-20T10:22:03;30.70;55.40
1367;DHT22;16877;48.810;9.282;2022-08-20T10:24:31;30.70;55.40
1367;DHT22;16877;48.810;9.282;2022-08-20T10:26:59;30.70;55.10
1367;DHT22;16877;48.810;9.282;2022-08-20T10:29:27;30.90;55.10
1367;DHT22;16877;48.810;9.282;2022-08-20T10:31:55;31.00;54.90
1367;DHT22;16877;48.810;9.282;2022-08-20T10:34:23;31.10;54.70
1367;DHT22;16877;48.810;9.282;2022-08-20T10:36:49;31.20;54.50
1367;DHT22;16877;48.810;9.282;2022-08-20T10:39:16;31.20;54.30
1367;DHT22;16877;48.810;9.282;2022-08-20T10:41:44;31.00;54.40
1367;DHT22;16877;48.810;9.282;2022-08-20T10:44:11;30.70;54.70
1367;DHT22;16877;48.810;9.282;2022-08-20T10:46:37;30.60;55.50
1367;DHT22;16877;48.810;9.282;2022-08-20T10:49:04;30.60;55.20
1367;DHT22;16877;48.810;9.282;2022-08-20T10:51:31;30.60;55.10
1367;DHT22;16877;48.810;9.282;2022-08-20T10:53:57;31.30;55.40
1367;DHT22;16877;48.810;9.282;2022-08-20T10:56:24;31.90;53.90
1367;DHT22;16877;48.810;9.282;2022-08-20T10:58:52;32.00;52.70
1367;DHT22;16877;48.810;9.282;2022-08-20T11:01:19;31.70;52.70
1367;DHT22;16877;48.810;9.282;2022-08-20T11:03:46;31.40;52.80
1367;DHT22;16877;48.810;9.282;2022-08-20T11:06:12;31.40;53.30
1367;DHT22;16877;48.810;9.282;2022-08-20T11:08:39;31.30;52.70
1367;DHT22;16877;48.810;9.282;2022-08-20T11:11:06;31.20;53.50
1367;DHT22;16877;48.810;9.282;2022-08-20T11:13:33;31.10;53.60
1367;DHT22;16877;48.810;9.282;2022-08-20T11:16:02;31.00;53.70
1367;DHT22;16877;48.810;9.282;2022-08-20T11:18:30;31.00;53.70
1367;DHT22;16877;48.810;9.282;2022-08-20T11:20:57;31.10;54.00
1367;DHT22;16877;48.810;9.282;2022-08-20T11:23:24;31.10;54.10
1367;DHT22;16877;48.810;9.282;2022-08-20T11:25:51;31.20;54.60
1367;DHT22;16877;48.810;9.282;2022-08-20T11:28:19;31.30;54.30
1367;DHT22;16877;48.810;9.282;2022-08-20T11:30:45;31.00;53.90
1367;DHT22;16877;48.810;9.282;2022-08-20T11:33:15;31.00;53.60
1367;DHT22;16877;48.810;9.282;2022-08-20T11:35:43;31.00;53.80
1367;DHT22;16877;48.810;9.282;2022-08-20T11:38:10;30.90;53.50
1367;DHT22;16877;48.810;9.282;2022-08-20T11:40:37;30.90;54.20
1367;DHT22;16877;48.810;9.282;2022-08-20T11:43:03;30.90;53.90
1367;DHT22;16877;48.810;9.282;2022-08-20T11:45:30;31.00;54.00
1367;DHT22;16877;48.810;9.282;2022-08-20T11:47:57;31.10;53.90
1367;DHT22;16877;48.810;9.282;2022-08-20T11:50:25;31.10;53.70
1367;DHT22;16877;48.810;9.282;2022-08-20T11:52:52;31.00;53.30
1367;DHT22;16877;48.810;9.282;2022-08-20T11:55:18;31.00;53.20
1367;DHT22;16877;48.810;9.282;2022-08-20T11:57:46;31.00;53.50
1367;DHT22;16877;48.810;9.282;2022-08-20T12:00:17;31.10;53.50
1367;DHT22;16877;48.810;9.282;2022-08-20T12:02:44;31.10;52.80
1367;DHT22;16877;48.810;9.282;2022-08-20T12:05:11;31.00;52.50
1367;DHT22;16877;48.810;9.282;2022-08-20T12:07:39;31.00;53.30
1367;DHT22;16877;48.810;9.282;2022-08-20T12:10:07;31.10;53.30
1367;DHT22;16877;48.810;9.282;2022-08-20T12:12:36;31.10;53.20
1367;DHT22;16877;48.810;9.282;2022-08-20T12:15:04;31.00;52.90
1367;DHT22;16877;48.810;9.282;2022-08-20T12:17:32;31.00;53.00
1367;DHT22;16877;48.810;9.282;2022-08-20T12:20:00;31.00;53.10
1367;DHT22;16877;48.810;9.282;2022-08-20T12:22:28;31.10;53.00
1367;DHT22;16877;48.810;9.282;2022-08-20T12:24:56;31.10;52.80
1367;DHT22;16877;48.810;9.282;2022-08-20T12:27:25;31.10;52.90
1367;DHT22;16877;48.810;9.282;2022-08-20T12:29:54;31.10;52.70
1367;DHT22;16877;48.810;9.282;2022-08-20T12:32:21;31.10;52.90
1367;DHT22;16877;48.810;9.282;2022-08-20T12:34:49;31.10;52.90
1367;DHT22;16877;48.810;9.282;2022-08-20T12:37:18;31.20;53.00
1367;DHT22;16877;48.810;9.282;2022-08-20T12:39:47;31.40;52.90
1367;DHT22;16877;48.810;9.282;2022-08-20T12:42:16;31.40;52.90
1367;DHT22;16877;48.810;9.282;2022-08-20T12:44:43;31.50;52.70
1367;DHT22;16877;48.810;9.282;2022-08-20T12:47:12;31.50;52.50
1367;DHT22;16877;48.810;9.282;2022-08-20T12:49:40;31.60;52.50
1367;DHT22;16877;48.810;9.282;2022-08-20T12:52:07;31.60;52.50
1367;DHT22;16877;48.810;9.282;2022-08-20T12:54:34;31.60;52.50
1367;DHT22;16877;48.810;9.282;2022-08-20T12:57:01;31.50;52.70
1367;DHT22;16877;48.810;9.282;2022-08-20T12:59:29;31.50;52.80
1367;DHT22;16877;48.810;9.282;2022-08-20T13:01:56;31.50;53.20
1367;DHT22;16877;48.810;9.282;2022-08-20T13:04:24;31.40;53.50
1367;DHT22;16877;48.810;9.282;2022-08-20T13:06:50;31.30;53.90
1367;DHT22;16877;48.810;9.282;2022-08-20T13:09:17;31.20;54.30
1367;DHT22;16877;48.810;9.282;2022-08-20T13:11:44;31.20;54.70
1367;DHT22;16877;48.810;9.282;2022-08-20T13:14:10;31.00;55.70
1367;DHT22;16877;48.810;9.282;2022-08-20T13:16:38;30.90;55.90
1367;DHT22;16877;48.810;9.282;2022-08-20T13:19:05;31.00;55.90
1367;DHT22;16877;48.810;9.282;2022-08-20T13:21:32;31.00;55.90
1367;DHT22;16877;48.810;9.282;2022-08-20T13:23:58;31.00;55.70
1367;DHT22;16877;48.810;9.282;2022-08-20T13:26:25;31.10;55.60
1367;DHT22;16877;48.810;9.282;2022-08-20T13:28:52;31.20;55.50
1367;DHT22;16877;48.810;9.282;2022-08-20T13:31:18;31.30;55.40
1367;DHT22;16877;48.810;9.282;2022-08-20T13:33:47;31.30;55.30
1367;DHT22;16877;48.810;9.282;2022-08-20T13:36:13;31.40;55.20
1367;DHT22;16877;48.810;9.282;2022-08-20T13:38:40;31.50;55.00
1367;DHT22;16877;48.810;9.282;2022-08-20T13:41:07;31.60;54.90
1367;DHT22;16877;48.810;9.282;2022-08-20T13:43:33;31.60;55.10
1367;DHT22;16877;48.810;9.282;2022-08-20T13:46:00;31.70;55.20
1367;DHT22;16877;48.810;9.282;2022-08-20T13:48:27;31.70;55.20
1367;DHT22;16877;48.810;9.282;2022-08-20T13:50:55;31.70;55.30
1367;DHT22;16877;48.810;9.282;2022-08-20T13:53:21;31.70;55.10
1367;DHT22;16877;48.810;9.282;2022-08-20T13:55:48;31.80;55.20
1367;DHT22;16877;48.810;9.282;2022-08-20T13:58:15;31.80;55.30
1367;DHT22;16877;48.810;9.282;2022-08-20T14:00:43;31.80;55.10
1367;DHT22;16877;48.810;9.282;2022-08-20T14:03:11;31.90;55.20
1367;DHT22;16877;48.810;9.282;2022-08-20T14:05:38;31.90;55.50
1367;DHT22;16877;48.810;9.282;2022-08-20T14:08:08;32.00;55.40
1367;DHT22;16877;48.810;9.282;2022-08-20T14:10:36;32.00;55.20
1367;DHT22;16877;48.810;9.282;2022-08-20T14:13:03;32.10;55.10
1367;DHT22;16877;48.810;9.282;2022-08-20T14:15:31;32.40;55.30
1367;DHT22;16877;48.810;9.282;2022-08-20T14:17:58;32.70;55.60
1367;DHT22;16877;48.810;9.282;2022-08-20T14:20:27;33.20;55.40
1367;DHT22;16877;48.810;9.282;2022-08-20T14:22:54;33.80;55.00
1367;DHT22;16877;48.810;9.282;2022-08-20T14:25:23;34.10;54.50
1367;DHT22;16877;48.810;9.282;2022-08-20T14:27:51;34.10;53.90
1367;DHT22;16877;48.810;9.282;2022-08-20T14:30:21;34.10;53.50
1367;DHT22;16877;48.810;9.282;2022-08-20T14:32:48;34.10;53.50
1367;DHT22;16877;48.810;9.282;2022-08-20T14:35:15;34.10;53.40
1367;DHT22;16877;48.810;9.282;2022-08-20T14:37:46;34.10;53.30
1367;DHT22;16877;48.810;9.282;2022-08-20T14:40:15;34.10;53.40
1367;DHT22;16877;48.810;9.282;2022-08-20T14:42:44;34.20;53.40
1367;DHT22;16877;48.810;9.282;2022-08-20T14:45:12;34.10;53.20
1367;DHT22;16877;48.810;9.282;2022-08-20T14:47:41;34.10;53.10
1367;DHT22;16877;48.810;9.282;2022-08-20T14:50:11;34.60;53.20
1367;DHT22;16877;48.810;9.282;2022-08-20T14:52:38;34.80;53.30
1367;DHT22;16877;48.810;9.282;2022-08-20T14:55:08;34.70;52.50
1367;DHT22;16877;48.810;9.282;2022-08-20T14:57:37;35.30;52.60
1367;DHT22;16877;48.810;9.282;2022-08-20T15:00:08;35.70;52.40
1367;DHT22;16877;48.810;9.282;2022-08-20T15:02:36;36.20;51.90
1367;DHT22;16877;48.810;9.282;2022-08-20T15:05:03;36.60;50.90
1367;DHT22;16877;48.810;9.282;2022-08-20T15:07:33;37.00;50.00
1367;DHT22;16877;48.810;9.282;2022-08-20T15:10:03;37.30;49.40
1367;DHT22;16877;48.810;9.282;2022-08-20T15:12:31;37.60;48.80
1367;DHT22;16877;48.810;9.282;2022-08-20T15:14:59;38.00;48.30
1367;DHT22;16877;48.810;9.282;2022-08-20T15:17:28;38.30;48.00
1367;DHT22;16877;48.810;9.282;2022-08-20T15:19:56;38.50;47.40
1367;DHT22;16877;48.810;9.282;2022-08-20T15:22:23;38.80;47.00
1367;DHT22;16877;48.810;9.282;2022-08-20T15:24:50;39.00;46.60
1367;DHT22;16877;48.810;9.282;2022-08-20T15:27:19;39.20;46.10
1367;DHT22;16877;48.810;9.282;2022-08-20T15:29:46;39.40;45.80
1367;DHT22;16877;48.810;9.282;2022-08-20T15:32:13;39.60;45.70
1367;DHT22;16877;48.810;9.282;2022-08-20T15:34:41;39.70;45.10
1367;DHT22;16877;48.810;9.282;2022-08-20T15:37:09;39.80;44.70
1367;DHT22;16877;48.810;9.282;2022-08-20T15:39:37;40.00;44.50
1367;DHT22;16877;48.810;9.282;2022-08-20T15:42:04;40.00;44.30
1367;DHT22;16877;48.810;9.282;2022-08-20T15:44:32;40.10;44.20
1367;DHT22;16877;48.810;9.282;2022-08-20T15:47:12;40.10;44.00
1367;DHT22;16877;48.810;9.282;2022-08-20T15:49:40;40.00;43.50